Flight ASX315

  • Submitted By: Lukasz Przybylak
  • Departure Airport: Gdansk im. Lecha Walesy (EPGD)
  • Arrival Airport: Szczecin (EPSC)
  • Aircraft: KING AIR 350 (SP-DBL)
  • Flight Time: 01.03.00
  • Date Submitted: 09/07/2017
  • Status: Accepted
Flight Details
Gross Revenue:
(8 load / € 55.00 per unit
€ 440.00
Fuel Cost:
(210.013 fuel used @ 0.45 / unit)
€ 94.51

Additional Log Information:

View Log

[20:53] - CARENADO B350i King Air 5003
[20:53] - Flight ASX315 is ready to depart EPGD with a final destination of EPSC.
[20:53] - Parking Brake Applied
[20:53] - Boarding
[20:53] - ADF1 - 284.0
[20:53] - ADF2 - 240.0
[20:53] - NAV1 - 113.70
[20:53] - NAV2 - 110.60
[20:53] - COM1 - 128.30
[20:53] - COM2 - 127.80
[20:53] - Transponder - 1200
[20:54] - Instrument Lights ON 3AGL
[20:54] - Engine 1 Started
[20:55] - Navigation Lights ON 3AGL
[20:55] - Beacon Light ON 3AGL
[20:55] - Engine 2 Started
[21:00] - COM1 - 122.80
[21:04] - Taxi Lights ON 3AGL
[21:04] - Wing Lights ON 3AGL
[21:04] - Recognition Lights ON 3AGL
[21:04] - Pushing Back from the gate
[21:04] - Parking Brake Released
[21:06] - Taxiing to Runway
[21:10] - Parking Brake Applied
[21:10] - Taxi Lights OFF 3AGL
[21:10] - Landing Lights ON 3AGL
[21:10] - Strobe Lights ON 3AGL
[21:10] - Parking Brake Released
[21:12] - Taking Off with 8 passengers on board
[21:12] - Take off at 145kts, with a pitch of 3deg and 1419lbs of fuel on board
[21:12] - Wind Heading 263 | Wind Speed 4kts | Temperature 10 deg C
[21:12] - METAR Departure: EPGD 071900Z 23004KT CAVOK 10/10 Q1008

[21:12] - Climbing to TOC
[21:12] - Gear up at 1168AGL
[21:12] - AutoPilot Engaged at 1220AGL
[21:24] - TOC reached
[21:24] - Cruise started
[21:27] - Landing Lights OFF 17411AGL
[21:40] - TOD reached
[21:40] - Descending to destination
[21:43] - Landing Lights ON 9738AGL
[21:45] - Landing Shortly
[21:46] - Gear down at 2421AGL
[21:46] - Flaps to position 1 at 1394ft and 169kts
[21:47] - AutoPilot Disengaged at 693AGL
[21:47] - NAV1 - 110.50
[21:48] - Landed at -342fpm. With 1015lbs of fuel onboard and a pitch angle of 3deg.
[21:48] - Wind Heading 251 | Wind Speed 7kts | Temperature 14 deg C
[21:48] - METAR Arrival: EPSC 071930Z 24007KT 210V280 9999 FEW039 14/12 Q1009

[21:49] - Taxiing to Gate
[21:49] - Parking Brake Applied
[21:49] - Arrived safely at EPSC. We hope you enjoyed your flight!
[21:49] - Landing Lights OFF 6AGL
[21:49] - Taxi Lights ON 6AGL
[21:49] - Strobe Lights OFF 6AGL
[21:52] - Parking Brake Released
[21:52] - Taxiing to Gate
[21:52] - Flaps to position 0
[21:54] - Parking Brake Applied
[21:54] - Arrived safely at EPSC. We hope you enjoyed your flight!
[21:54] - Taxi Lights OFF 6AGL
[21:54] - Wing Lights OFF 6AGL
[21:54] - Recognition Lights OFF 6AGL
[21:54] - Engine 2 Stopped
[21:55] - Engine 1 Stopped
[21:56] - CARENADO B350i King Air 5003
[21:56] - MaxSim Rate: 1x
[21:56] - SiouxAcars ver: 1.0.1.2

Route Map